Language selection

Weather shortcuts

Lake Melville: Past 24 Hour Conditions

 

East Chedabucto Bay - 44488

09:00 PM ADT 15 April 2024Buoy position: 45.45N 60.95W
Disclaimer

This table is a summary of hourly weather conditions for the past 24 hours.
Please note that these observations might not always be representative of weather conditions over their associated marine area.

Date / Time
(ADT)
Wind(knots) Wave height(m) Wave period(s) Pressure(kPa) Air tempC) Water tempC)
15 April 2024
21:00 W 5 gusts 6 1.21 7.7 101.1 4 3
20:00 SW 12 gusts 16 1.28 8.5 101.0 5 3
19:00 SW 10 gusts 12 1.24 7.9 100.9 5 3
18:00 WSW 11 gusts 12 1.38 8.7 100.8 5 3
17:00 WSW 12 gusts 13 1.33 8.3 100.8 5 3
16:00 SSW 13 gusts 16 1.34 7.8 100.8 5 3
15:00 SSE 17 gusts 20 1.39 8.3 100.8 4 3
14:00 SSE 15 gusts 17 1.20 8.3 100.9 4 3
13:00 SSE 10 gusts 13 1.51 9.9 101.1 4 3
12:00 S 11 gusts 13 1.36 8.9 101.2 4 3
11:00 SSW 12 gusts 13 1.53 9.5 101.3 4 3
10:00 SSW 15 gusts 16 1.46 9.4 101.2 4 3
9:00 SW 8 gusts 11 1.33 8.5 101.3 4 3
8:00 SW 16 gusts 19 1.45 9.0 101.2 4 3
7:00 WSW 13 gusts 17 1.41 8.5 101.1 4 3
6:00 WSW 10 gusts 12 1.31 8.9 101.1 4 3
5:00 W 12 gusts 14 1.59 9.1 101.0 4 3
4:00 WSW 16 gusts 18 1.65 9.5 101.0 4 3
3:00 WSW 9 gusts 12 1.71 9.5 100.9 3 3
2:00 WSW 8 gusts 11 1.53 9.5 100.9 3 3
1:00 WSW 13 gusts 15 1.60 9.2 100.9 3 3
0:00 WSW 8 gusts 11 1.45 9.1 100.9 3 3
14 April 2024
23:00 W 8 gusts 10 1.59 9.5 100.8 3 3
22:00 WSW 12 gusts 16 1.60 8.7 100.8 4 3
21:00 WSW 11 gusts 12 1.46 9.0 100.8 4 3

Zoom-in to make a selection

Map of Atlantic - Newfoundland marine weather areas Banquereau - 44139 East Chedabucto Bay – 44488 West Chedabucto Bay – 44489 Blanc-Sablon Airport Cap Whittle Chevery Natashquan Airport Heath Point Îles de la Madeleine Airport Miscou Island Eskasoni (First Nations) Grand Étang Ingonish Beach North Mountain St.Paul Island J.A. Douglas McCurdy Sydney Airport Charlottetown Airport East Point North Cape Argentia Berry Hill Bonavista Burgeo Cape Race Corner Brook Daniel's Harbour Englee Ferolle Point La Scie Port aux Basques Sagona Island St. Anthony Airport St. John's Int'l Airport St. Lawrence Stephenville Airport Twillingate Winterland Branch Hill Wreckhouse Grates Cove Pool's Island Marticot Island Long Pond Cartwright Airport Mary's Harbour
Legend:
buoy Buoy
land station Land Station

Atlantic - Newfoundland Area

Another Region

Date modified: